sensor_id;sensor_type;location;lat;lon;timestamp;pressure;altitude;pressure_sealevel;temperature;humidity
75414;BME280;64758;52.122;5.404;2022-12-07T00:01:28;102100.78;;;3.50;100.00
75414;BME280;64758;52.122;5.404;2022-12-07T00:03:57;102100.94;;;3.36;100.00
75414;BME280;64758;52.122;5.404;2022-12-07T00:06:32;102097.88;;;3.42;100.00
75414;BME280;64758;52.122;5.404;2022-12-07T00:08:59;102098.50;;;3.45;100.00
75414;BME280;64758;52.122;5.404;2022-12-07T00:11:25;102103.75;;;3.45;100.00
75414;BME280;64758;52.122;5.404;2022-12-07T00:13:54;102103.84;;;3.44;100.00
75414;BME280;64758;52.122;5.404;2022-12-07T00:16:22;102098.44;;;3.34;100.00
75414;BME280;64758;52.122;5.404;2022-12-07T00:18:49;102096.97;;;3.30;100.00
75414;BME280;64758;52.122;5.404;2022-12-07T00:21:21;102102.22;;;3.30;100.00
75414;BME280;64758;52.122;5.404;2022-12-07T00:23:49;102097.19;;;3.27;100.00
75414;BME280;64758;52.122;5.404;2022-12-07T00:26:21;102096.25;;;3.28;100.00
75414;BME280;64758;52.122;5.404;2022-12-07T00:28:50;102087.84;;;3.23;100.00
75414;BME280;64758;52.122;5.404;2022-12-07T00:31:19;102093.50;;;3.30;100.00
75414;BME280;64758;52.122;5.404;2022-12-07T00:33:46;102086.03;;;3.36;100.00
75414;BME280;64758;52.122;5.404;2022-12-07T00:36:15;102082.47;;;3.37;100.00
75414;BME280;64758;52.122;5.404;2022-12-07T00:38:48;102076.34;;;3.37;100.00
75414;BME280;64758;52.122;5.404;2022-12-07T00:41:17;102071.94;;;3.37;100.00
75414;BME280;64758;52.122;5.404;2022-12-07T00:43:45;102072.78;;;3.38;100.00
75414;BME280;64758;52.122;5.404;2022-12-07T00:46:13;102076.34;;;3.37;100.00
75414;BME280;64758;52.122;5.404;2022-12-07T00:48:39;102073.94;;;3.34;100.00
75414;BME280;64758;52.122;5.404;2022-12-07T00:51:06;102061.75;;;3.33;100.00
75414;BME280;64758;52.122;5.404;2022-12-07T00:53:34;102074.06;;;3.32;100.00
75414;BME280;64758;52.122;5.404;2022-12-07T00:56:16;102074.06;;;3.32;100.00
75414;BME280;64758;52.122;5.404;2022-12-07T00:58:43;102073.34;;;3.30;100.00
75414;BME280;64758;52.122;5.404;2022-12-07T01:01:10;102076.69;;;3.32;100.00
75414;BME280;64758;52.122;5.404;2022-12-07T01:03:37;102064.59;;;3.30;100.00
75414;BME280;64758;52.122;5.404;2022-12-07T01:06:04;102063.66;;;3.31;100.00
75414;BME280;64758;52.122;5.404;2022-12-07T01:08:31;102074.06;;;3.32;100.00
75414;BME280;64758;52.122;5.404;2022-12-07T01:11:03;102064.00;;;3.26;100.00
75414;BME280;64758;52.122;5.404;2022-12-07T01:13:32;102068.53;;;3.24;100.00
75414;BME280;64758;52.122;5.404;2022-12-07T01:16:03;102073.56;;;3.27;100.00
75414;BME280;64758;52.122;5.404;2022-12-07T01:18:31;102075.75;;;3.33;100.00
75414;BME280;64758;52.122;5.404;2022-12-07T01:21:03;102057.25;;;3.35;100.00
75414;BME280;64758;52.122;5.404;2022-12-07T01:23:30;102066.47;;;3.40;100.00
75414;BME280;64758;52.122;5.404;2022-12-07T01:25:59;102065.97;;;3.35;100.00
75414;BME280;64758;52.122;5.404;2022-12-07T01:28:26;102074.34;;;3.40;100.00
75414;BME280;64758;52.122;5.404;2022-12-07T01:31:01;102068.59;;;3.35;100.00
75414;BME280;64758;52.122;5.404;2022-12-07T01:33:30;102062.50;;;3.35;100.00
75414;BME280;64758;52.122;5.404;2022-12-07T01:36:04;102078.16;;;3.36;100.00
75414;BME280;64758;52.122;5.404;2022-12-07T01:38:31;102070.59;;;3.32;100.00
75414;BME280;64758;52.122;5.404;2022-12-07T01:40:59;102083.19;;;3.27;100.00
75414;BME280;64758;52.122;5.404;2022-12-07T01:43:29;102077.34;;;3.23;100.00
75414;BME280;64758;52.122;5.404;2022-12-07T01:45:56;102071.91;;;3.14;100.00
75414;BME280;64758;52.122;5.404;2022-12-07T01:48:31;102067.59;;;3.13;100.00
75414;BME280;64758;52.122;5.404;2022-12-07T01:51:04;102084.41;;;3.10;100.00
75414;BME280;64758;52.122;5.404;2022-12-07T01:53:34;102074.66;;;3.00;100.00
75414;BME280;64758;52.122;5.404;2022-12-07T01:56:02;102069.09;;;2.92;100.00
75414;BME280;64758;52.122;5.404;2022-12-07T01:58:29;102071.34;;;2.85;100.00
75414;BME280;64758;52.122;5.404;2022-12-07T02:00:55;102073.75;;;2.88;100.00
75414;BME280;64758;52.122;5.404;2022-12-07T02:03:31;102076.75;;;2.95;100.00
75414;BME280;64758;52.122;5.404;2022-12-07T02:06:00;102080.03;;;2.98;100.00
75414;BME280;64758;52.122;5.404;2022-12-07T02:08:27;102080.97;;;2.97;100.00
75414;BME280;64758;52.122;5.404;2022-12-07T02:10:54;102078.88;;;3.02;100.00
75414;BME280;64758;52.122;5.404;2022-12-07T02:13:26;102071.59;;;3.06;100.00
75414;BME280;64758;52.122;5.404;2022-12-07T02:16:27;102079.16;;;3.10;100.00
75414;BME280;64758;52.122;5.404;2022-12-07T02:21:59;102067.78;;;3.22;100.00
75414;BME280;64758;52.122;5.404;2022-12-07T02:30:00;102063.56;;;3.32;100.00
75414;BME280;64758;52.122;5.404;2022-12-07T02:35:20;102067.88;;;3.33;100.00
75414;BME280;64758;52.122;5.404;2022-12-07T02:38:02;102056.28;;;3.36;100.00
75414;BME280;64758;52.122;5.404;2022-12-07T02:40:35;102050.31;;;3.34;100.00
75414;BME280;64758;52.122;5.404;2022-12-07T02:43:32;102058.81;;;3.37;100.00
75414;BME280;64758;52.122;5.404;2022-12-07T02:46:06;102052.84;;;3.35;100.00
75414;BME280;64758;52.122;5.404;2022-12-07T02:48:35;102052.63;;;3.38;100.00
75414;BME280;64758;52.122;5.404;2022-12-07T02:51:03;102056.06;;;3.39;100.00
75414;BME280;64758;52.122;5.404;2022-12-07T02:53:34;102059.56;;;3.39;100.00
75414;BME280;64758;52.122;5.404;2022-12-07T02:56:16;102063.22;;;3.37;100.00
75414;BME280;64758;52.122;5.404;2022-12-07T03:09:57;102069.94;;;3.41;100.00
75414;BME280;64758;52.122;5.404;2022-12-07T03:12:59;102052.50;;;3.40;100.00
75414;BME280;64758;52.122;5.404;2022-12-07T03:18:39;102047.53;;;3.48;100.00
75414;BME280;64758;52.122;5.404;2022-12-07T03:21:16;102054.88;;;3.55;100.00
75414;BME280;64758;52.122;5.404;2022-12-07T03:23:46;102050.78;;;3.51;100.00
75414;BME280;64758;52.122;5.404;2022-12-07T03:26:17;102048.88;;;3.53;100.00
75414;BME280;64758;52.122;5.404;2022-12-07T03:28:50;102046.13;;;3.55;100.00
75414;BME280;64758;52.122;5.404;2022-12-07T03:31:22;102044.69;;;3.51;100.00
75414;BME280;64758;52.122;5.404;2022-12-07T03:34:20;102052.06;;;3.46;100.00
75414;BME280;64758;52.122;5.404;2022-12-07T03:37:16;102047.97;;;3.42;100.00
75414;BME280;64758;52.122;5.404;2022-12-07T03:42:33;102033.75;;;3.33;100.00
75414;BME280;64758;52.122;5.404;2022-12-07T03:45:02;102034.91;;;3.29;100.00
75414;BME280;64758;52.122;5.404;2022-12-07T03:47:34;102030.31;;;3.20;100.00
75414;BME280;64758;52.122;5.404;2022-12-07T03:50:32;102038.28;;;3.19;100.00
75414;BME280;64758;52.122;5.404;2022-12-07T03:53:09;102029.69;;;3.17;100.00
75414;BME280;64758;52.122;5.404;2022-12-07T03:55:40;102027.28;;;3.14;100.00
75414;BME280;64758;52.122;5.404;2022-12-07T03:58:12;102042.00;;;3.16;100.00
75414;BME280;64758;52.122;5.404;2022-12-07T04:00:41;102052.13;;;3.21;100.00
75414;BME280;64758;52.122;5.404;2022-12-07T04:03:08;102044.25;;;3.21;100.00
75414;BME280;64758;52.122;5.404;2022-12-07T04:05:36;102044.91;;;3.24;100.00
75414;BME280;64758;52.122;5.404;2022-12-07T04:08:03;102033.44;;;3.25;100.00
75414;BME280;64758;52.122;5.404;2022-12-07T04:10:30;102032.72;;;3.23;100.00
75414;BME280;64758;52.122;5.404;2022-12-07T04:12:56;102024.72;;;3.25;100.00
75414;BME280;64758;52.122;5.404;2022-12-07T04:15:23;102024.28;;;3.31;100.00
75414;BME280;64758;52.122;5.404;2022-12-07T04:17:49;102018.81;;;3.34;100.00
75414;BME280;64758;52.122;5.404;2022-12-07T04:20:16;102022.38;;;3.33;100.00
75414;BME280;64758;52.122;5.404;2022-12-07T04:22:42;102028.28;;;3.36;100.00
75414;BME280;64758;52.122;5.404;2022-12-07T04:25:09;102023.75;;;3.38;100.00
75414;BME280;64758;52.122;5.404;2022-12-07T04:27:35;102032.44;;;3.39;100.00
75414;BME280;64758;52.122;5.404;2022-12-07T04:30:02;102028.28;;;3.36;100.00
75414;BME280;64758;52.122;5.404;2022-12-07T04:32:29;102031.13;;;3.33;100.00
75414;BME280;64758;52.122;5.404;2022-12-07T04:34:55;102030.38;;;3.31;100.00
75414;BME280;64758;52.122;5.404;2022-12-07T04:37:23;102021.78;;;3.29;100.00
75414;BME280;64758;52.122;5.404;2022-12-07T04:39:50;102022.97;;;3.25;100.00
75414;BME280;64758;52.122;5.404;2022-12-07T04:42:16;102020.31;;;3.25;100.00
75414;BME280;64758;52.122;5.404;2022-12-07T04:44:43;102031.56;;;3.27;100.00
75414;BME280;64758;52.122;5.404;2022-12-07T04:47:09;102032.50;;;3.26;100.00
75414;BME280;64758;52.122;5.404;2022-12-07T04:49:36;102040.25;;;3.28;100.00
75414;BME280;64758;52.122;5.404;2022-12-07T04:52:02;102032.06;;;3.32;100.00
75414;BME280;64758;52.122;5.404;2022-12-07T04:54:29;102025.75;;;3.35;100.00
75414;BME280;64758;52.122;5.404;2022-12-07T04:56:55;102027.59;;;3.45;100.00
75414;BME280;64758;52.122;5.404;2022-12-07T04:59:22;102024.84;;;3.47;100.00
75414;BME280;64758;52.122;5.404;2022-12-07T05:01:48;102011.84;;;3.45;100.00
75414;BME280;64758;52.122;5.404;2022-12-07T05:04:15;102012.78;;;3.44;100.00
75414;BME280;64758;52.122;5.404;2022-12-07T05:06:42;102014.69;;;3.42;100.00
75414;BME280;64758;52.122;5.404;2022-12-07T05:09:08;102005.38;;;3.38;100.00
75414;BME280;64758;52.122;5.404;2022-12-07T05:11:35;102000.13;;;3.38;100.00
75414;BME280;64758;52.122;5.404;2022-12-07T05:14:11;102000.56;;;3.32;100.00
75414;BME280;64758;52.122;5.404;2022-12-07T05:16:38;102010.44;;;3.29;100.00
75414;BME280;64758;52.122;5.404;2022-12-07T05:19:05;102010.06;;;3.22;100.00
75414;BME280;64758;52.122;5.404;2022-12-07T05:21:32;102011.72;;;3.23;100.00
75414;BME280;64758;52.122;5.404;2022-12-07T05:23:59;102006.47;;;3.23;100.00
75414;BME280;64758;52.122;5.404;2022-12-07T05:26:25;102010.88;;;3.23;100.00
75414;BME280;64758;52.122;5.404;2022-12-07T05:28:53;102006.69;;;3.20;100.00
75414;BME280;64758;52.122;5.404;2022-12-07T05:31:21;102005.13;;;3.18;100.00
75414;BME280;64758;52.122;5.404;2022-12-07T05:33:47;102003.78;;;3.12;100.00
75414;BME280;64758;52.122;5.404;2022-12-07T05:36:14;102012.31;;;3.03;100.00
75414;BME280;64758;52.122;5.404;2022-12-07T05:38:41;102019.69;;;2.98;100.00
75414;BME280;64758;52.122;5.404;2022-12-07T05:41:08;102006.03;;;2.93;100.00
75414;BME280;64758;52.122;5.404;2022-12-07T05:43:55;102012.69;;;2.86;100.00
75414;BME280;64758;52.122;5.404;2022-12-07T05:46:22;102015.38;;;2.85;100.00
75414;BME280;64758;52.122;5.404;2022-12-07T05:48:48;102007.88;;;2.80;100.00
75414;BME280;64758;52.122;5.404;2022-12-07T05:51:15;102016.56;;;2.81;100.00
75414;BME280;64758;52.122;5.404;2022-12-07T05:53:41;102019.91;;;2.83;100.00
75414;BME280;64758;52.122;5.404;2022-12-07T05:56:08;102015.72;;;2.80;100.00
75414;BME280;64758;52.122;5.404;2022-12-07T05:58:34;102015.59;;;2.82;100.00
75414;BME280;64758;52.122;5.404;2022-12-07T06:01:19;102013.19;;;2.79;100.00
75414;BME280;64758;52.122;5.404;2022-12-07T06:03:45;102014.78;;;2.81;100.00
75414;BME280;64758;52.122;5.404;2022-12-07T06:06:12;102019.91;;;2.83;100.00
75414;BME280;64758;52.122;5.404;2022-12-07T06:08:38;102016.47;;;2.82;100.00
75414;BME280;64758;52.122;5.404;2022-12-07T06:11:05;102015.59;;;2.82;100.00
75414;BME280;64758;52.122;5.404;2022-12-07T06:13:50;102017.41;;;2.81;100.00
75414;BME280;64758;52.122;5.404;2022-12-07T06:16:16;102020.03;;;2.81;100.00
75414;BME280;64758;52.122;5.404;2022-12-07T06:18:43;102019.50;;;2.76;100.00
75414;BME280;64758;52.122;5.404;2022-12-07T06:21:09;102021.19;;;2.77;100.00
75414;BME280;64758;52.122;5.404;2022-12-07T06:23:36;102031.69;;;2.77;100.00
75414;BME280;64758;52.122;5.404;2022-12-07T06:26:02;102024.03;;;2.74;100.00
75414;BME280;64758;52.122;5.404;2022-12-07T06:28:29;102024.84;;;2.75;100.00
75414;BME280;64758;52.122;5.404;2022-12-07T06:30:59;102023.09;;;2.75;100.00
75414;BME280;64758;52.122;5.404;2022-12-07T06:33:27;102018.78;;;2.74;100.00
75414;BME280;64758;52.122;5.404;2022-12-07T06:35:53;102025.91;;;2.72;100.00
75414;BME280;64758;52.122;5.404;2022-12-07T06:38:20;102021.72;;;2.70;100.00
75414;BME280;64758;52.122;5.404;2022-12-07T06:40:47;102020.88;;;2.69;100.00
75414;BME280;64758;52.122;5.404;2022-12-07T06:43:15;102023.50;;;2.69;100.00
75414;BME280;64758;52.122;5.404;2022-12-07T06:45:41;102027.69;;;2.72;100.00
75414;BME280;64758;52.122;5.404;2022-12-07T06:48:08;102027.69;;;2.72;100.00
75414;BME280;64758;52.122;5.404;2022-12-07T06:50:35;102033.78;;;2.72;100.00
75414;BME280;64758;52.122;5.404;2022-12-07T06:53:01;102025.78;;;2.74;100.00
75414;BME280;64758;52.122;5.404;2022-12-07T06:55:28;102035.56;;;2.72;100.00
75414;BME280;64758;52.122;5.404;2022-12-07T06:57:54;102038.09;;;2.73;100.00
75414;BME280;64758;52.122;5.404;2022-12-07T07:00:21;102021.09;;;2.66;100.00
75414;BME280;64758;52.122;5.404;2022-12-07T07:02:47;102024.75;;;2.64;100.00
75414;BME280;64758;52.122;5.404;2022-12-07T07:05:14;102030.94;;;2.63;100.00
75414;BME280;64758;52.122;5.404;2022-12-07T07:07:42;102021.75;;;2.57;100.00
75414;BME280;64758;52.122;5.404;2022-12-07T07:10:29;102021.63;;;2.59;100.00
75414;BME280;64758;52.122;5.404;2022-12-07T07:12:55;102024.25;;;2.59;100.00
75414;BME280;64758;52.122;5.404;2022-12-07T07:15:23;102018.38;;;2.55;100.00
75414;BME280;64758;52.122;5.404;2022-12-07T07:17:49;102027.72;;;2.59;100.00
75414;BME280;64758;52.122;5.404;2022-12-07T07:20:16;102033.16;;;2.56;100.00
75414;BME280;64758;52.122;5.404;2022-12-07T07:22:42;102023.03;;;2.52;100.00
75414;BME280;64758;52.122;5.404;2022-12-07T07:25:09;102030.03;;;2.51;100.00
75414;BME280;64758;52.122;5.404;2022-12-07T07:27:35;102032.66;;;2.51;100.00
75414;BME280;64758;52.122;5.404;2022-12-07T07:30:03;102028.69;;;2.46;100.00
75414;BME280;64758;52.122;5.404;2022-12-07T07:32:30;102027.63;;;2.48;100.00
75414;BME280;64758;52.122;5.404;2022-12-07T07:34:56;102024.25;;;2.47;100.00
75414;BME280;64758;52.122;5.404;2022-12-07T07:37:23;102025.94;;;2.47;100.00
75414;BME280;64758;52.122;5.404;2022-12-07T07:39:49;102023.75;;;2.42;100.00
75414;BME280;64758;52.122;5.404;2022-12-07T07:42:16;102019.66;;;2.38;100.00
75414;BME280;64758;52.122;5.404;2022-12-07T07:44:42;102026.47;;;2.40;100.00
75414;BME280;64758;52.122;5.404;2022-12-07T07:47:09;102036.53;;;2.34;100.00
75414;BME280;64758;52.122;5.404;2022-12-07T07:49:35;102038.22;;;2.35;100.00
75414;BME280;64758;52.122;5.404;2022-12-07T07:52:02;102033.19;;;2.32;100.00
75414;BME280;64758;52.122;5.404;2022-12-07T07:54:29;102030.88;;;2.27;100.00
75414;BME280;64758;52.122;5.404;2022-12-07T07:56:55;102025.72;;;2.26;100.00
75414;BME280;64758;52.122;5.404;2022-12-07T07:59:22;102032.44;;;2.30;100.00
75414;BME280;64758;52.122;5.404;2022-12-07T08:01:49;102034.13;;;2.31;100.00
75414;BME280;64758;52.122;5.404;2022-12-07T08:04:15;102037.47;;;2.33;100.00
75414;BME280;64758;52.122;5.404;2022-12-07T08:06:42;102038.00;;;2.38;100.00
75414;BME280;64758;52.122;5.404;2022-12-07T08:09:09;102035.38;;;2.38;100.00
75414;BME280;64758;52.122;5.404;2022-12-07T08:11:35;102037.59;;;2.44;100.00
75414;BME280;64758;52.122;5.404;2022-12-07T08:14:02;102039.78;;;2.49;100.00
75414;BME280;64758;52.122;5.404;2022-12-07T08:16:29;102037.91;;;2.51;100.00
75414;BME280;64758;52.122;5.404;2022-12-07T08:18:56;102035.19;;;2.53;100.00
75414;BME280;64758;52.122;5.404;2022-12-07T08:21:22;102045.22;;;2.59;100.00
75414;BME280;64758;52.122;5.404;2022-12-07T08:23:49;102054.25;;;2.67;100.00
75414;BME280;64758;52.122;5.404;2022-12-07T08:26:16;102056.09;;;2.78;100.00
75414;BME280;64758;52.122;5.404;2022-12-07T08:28:43;102047.00;;;2.83;100.00
75414;BME280;64758;52.122;5.404;2022-12-07T08:31:14;102052.13;;;2.97;100.00
75414;BME280;64758;52.122;5.404;2022-12-07T08:33:41;102041.91;;;3.05;100.00
75414;BME280;64758;52.122;5.404;2022-12-07T08:36:13;102026.97;;;3.18;100.00
75414;BME280;64758;52.122;5.404;2022-12-07T08:38:40;102026.19;;;3.29;100.00
75414;BME280;64758;52.122;5.404;2022-12-07T08:41:21;102033.28;;;3.39;100.00
75414;BME280;64758;52.122;5.404;2022-12-07T08:43:48;102034.75;;;3.43;100.00
75414;BME280;64758;52.122;5.404;2022-12-07T08:46:31;102032.41;;;3.51;100.00
75414;BME280;64758;52.122;5.404;2022-12-07T08:49:10;102036.25;;;3.58;100.00
75414;BME280;64758;52.122;5.404;2022-12-07T08:51:38;102024.34;;;3.65;100.00
75414;BME280;64758;52.122;5.404;2022-12-07T08:54:09;102034.91;;;3.76;100.00
75414;BME280;64758;52.122;5.404;2022-12-07T08:56:37;102040.75;;;3.79;100.00
75414;BME280;64758;52.122;5.404;2022-12-07T08:59:04;102035.41;;;3.81;100.00
75414;BME280;64758;52.122;5.404;2022-12-07T09:01:32;102027.63;;;3.79;100.00
75414;BME280;64758;52.122;5.404;2022-12-07T09:03:59;102032.53;;;3.84;100.00
75414;BME280;64758;52.122;5.404;2022-12-07T09:06:26;102038.72;;;3.83;100.00
75414;BME280;64758;52.122;5.404;2022-12-07T09:08:57;102027.53;;;3.81;100.00
75414;BME280;64758;52.122;5.404;2022-12-07T09:11:24;102036.09;;;3.83;100.00
75414;BME280;64758;52.122;5.404;2022-12-07T09:13:54;102038.50;;;3.86;100.00
75414;BME280;64758;52.122;5.404;2022-12-07T09:16:21;102037.81;;;3.95;100.00
75414;BME280;64758;52.122;5.404;2022-12-07T09:18:48;102025.16;;;4.00;100.00
75414;BME280;64758;52.122;5.404;2022-12-07T09:21:14;102028.78;;;4.10;100.00
75414;BME280;64758;52.122;5.404;2022-12-07T09:23:41;102031.91;;;4.15;100.00
75414;BME280;64758;52.122;5.404;2022-12-07T09:26:09;102036.47;;;4.24;100.00
75414;BME280;64758;52.122;5.404;2022-12-07T09:28:37;102045.78;;;4.28;100.00
75414;BME280;64758;52.122;5.404;2022-12-07T09:31:04;102043.41;;;4.36;100.00
75414;BME280;64758;52.122;5.404;2022-12-07T09:33:57;102051.69;;;4.42;100.00
75414;BME280;64758;52.122;5.404;2022-12-07T09:36:26;102040.31;;;4.42;100.00
75414;BME280;64758;52.122;5.404;2022-12-07T09:38:53;102039.84;;;4.48;100.00
75414;BME280;64758;52.122;5.404;2022-12-07T09:41:21;102027.66;;;4.47;100.00
75414;BME280;64758;52.122;5.404;2022-12-07T09:43:48;102036.16;;;4.50;100.00
75414;BME280;64758;52.122;5.404;2022-12-07T09:46:16;102030.06;;;4.61;100.00
75414;BME280;64758;52.122;5.404;2022-12-07T09:48:45;102023.38;;;4.68;100.00
75414;BME280;64758;52.122;5.404;2022-12-07T09:51:21;102022.88;;;4.74;100.00
75414;BME280;64758;52.122;5.404;2022-12-07T09:53:53;102027.44;;;4.83;100.00
75414;BME280;64758;52.122;5.404;2022-12-07T09:56:21;102027.44;;;4.83;100.00
75414;BME280;64758;52.122;5.404;2022-12-07T09:58:49;102026.94;;;4.89;100.00
75414;BME280;64758;52.122;5.404;2022-12-07T10:01:18;102021.19;;;4.95;100.00
75414;BME280;64758;52.122;5.404;2022-12-07T10:03:51;102019.53;;;4.94;100.00
75414;BME280;64758;52.122;5.404;2022-12-07T10:06:18;102023.72;;;4.96;100.00
75414;BME280;64758;52.122;5.404;2022-12-07T10:08:45;102011.13;;;4.99;100.00
75414;BME280;64758;52.122;5.404;2022-12-07T10:11:11;102017.13;;;5.01;99.68
75414;BME280;64758;52.122;5.404;2022-12-07T10:13:43;102012.81;;;5.00;99.17
75414;BME280;64758;52.122;5.404;2022-12-07T10:18:50;102000.84;;;5.07;98.91
75414;BME280;64758;52.122;5.404;2022-12-07T10:21:20;101999.13;;;5.17;99.24
75414;BME280;64758;52.122;5.404;2022-12-07T10:24:04;102001.13;;;5.36;98.95
75414;BME280;64758;52.122;5.404;2022-12-07T10:26:37;101997.84;;;5.54;98.17
75414;BME280;64758;52.122;5.404;2022-12-07T10:29:16;101985.63;;;5.53;97.86
75414;BME280;64758;52.122;5.404;2022-12-07T10:31:45;101991.25;;;5.49;97.59
75414;BME280;64758;52.122;5.404;2022-12-07T10:34:27;101997.16;;;5.41;97.52
75414;BME280;64758;52.122;5.404;2022-12-07T10:37:19;101999.44;;;5.35;97.28
75414;BME280;64758;52.122;5.404;2022-12-07T10:39:51;101986.06;;;5.27;97.15
75414;BME280;64758;52.122;5.404;2022-12-07T10:47:51;101983.69;;;5.55;97.71
75414;BME280;64758;52.122;5.404;2022-12-07T10:50:55;101984.34;;;5.68;97.45
75414;BME280;64758;52.122;5.404;2022-12-07T10:59:56;101972.00;;;5.69;97.64
75414;BME280;64758;52.122;5.404;2022-12-07T11:02:32;101972.59;;;5.72;96.39
75414;BME280;64758;52.122;5.404;2022-12-07T11:08:42;101968.13;;;5.84;95.74
75414;BME280;64758;52.122;5.404;2022-12-07T11:19:15;101957.34;;;6.07;94.70
75414;BME280;64758;52.122;5.404;2022-12-07T11:22:02;101961.03;;;6.05;94.79
75414;BME280;64758;52.122;5.404;2022-12-07T11:24:39;101958.22;;;5.97;93.59
75414;BME280;64758;52.122;5.404;2022-12-07T11:27:32;101954.44;;;5.90;94.56
75414;BME280;64758;52.122;5.404;2022-12-07T11:30:11;101948.16;;;5.81;93.54
75414;BME280;64758;52.122;5.404;2022-12-07T11:32:53;101949.59;;;5.74;93.49
75414;BME280;64758;52.122;5.404;2022-12-07T11:37:59;101939.34;;;5.60;94.20
75414;BME280;64758;52.122;5.404;2022-12-07T11:40:34;101940.31;;;5.59;94.02
75414;BME280;64758;52.122;5.404;2022-12-07T11:43:28;101938.66;;;5.58;94.36
75414;BME280;64758;52.122;5.404;2022-12-07T11:46:03;101925.66;;;5.66;94.27
75414;BME280;64758;52.122;5.404;2022-12-07T11:48:50;101924.97;;;5.85;94.45
75414;BME280;64758;52.122;5.404;2022-12-07T11:51:22;101926.66;;;5.86;93.61
75414;BME280;64758;52.122;5.404;2022-12-07T11:54:12;101931.41;;;5.92;93.29
75414;BME280;64758;52.122;5.404;2022-12-07T11:56:40;101925.94;;;6.04;93.92
75414;BME280;64758;52.122;5.404;2022-12-07T11:59:19;101927.09;;;6.11;93.44
75414;BME280;64758;52.122;5.404;2022-12-07T12:02:00;101927.97;;;6.21;92.14
75414;BME280;64758;52.122;5.404;2022-12-07T12:04:58;101917.72;;;6.28;92.44
75414;BME280;64758;52.122;5.404;2022-12-07T12:07:28;101910.25;;;6.32;91.08
75414;BME280;64758;52.122;5.404;2022-12-07T12:10:23;101905.81;;;6.33;90.62
75414;BME280;64758;52.122;5.404;2022-12-07T12:16:44;101889.22;;;6.51;90.53
75414;BME280;64758;52.122;5.404;2022-12-07T12:19:35;101893.38;;;6.54;89.05
75414;BME280;64758;52.122;5.404;2022-12-07T12:22:15;101893.63;;;6.51;88.92
75414;BME280;64758;52.122;5.404;2022-12-07T12:24:46;101886.94;;;6.47;87.63
75414;BME280;64758;52.122;5.404;2022-12-07T12:27:24;101891.56;;;6.54;86.16
75414;BME280;64758;52.122;5.404;2022-12-07T12:29:54;101887.97;;;6.65;86.73
75414;BME280;64758;52.122;5.404;2022-12-07T12:32:41;101888.41;;;6.70;86.11
75414;BME280;64758;52.122;5.404;2022-12-07T12:35:31;101878.59;;;6.81;86.46
75414;BME280;64758;52.122;5.404;2022-12-07T12:38:25;101883.75;;;6.92;85.99
75414;BME280;64758;52.122;5.404;2022-12-07T12:40:54;101867.63;;;6.95;85.13
75414;BME280;64758;52.122;5.404;2022-12-07T12:43:59;101871.22;;;7.04;85.52
75414;BME280;64758;52.122;5.404;2022-12-07T12:51:49;101869.69;;;7.49;83.83
75414;BME280;64758;52.122;5.404;2022-12-07T12:54:31;101858.25;;;7.57;83.90
75414;BME280;64758;52.122;5.404;2022-12-07T12:57:30;101861.59;;;7.59;83.46
75414;BME280;64758;52.122;5.404;2022-12-07T13:00:14;101863.44;;;7.31;81.44
75414;BME280;64758;52.122;5.404;2022-12-07T13:02:50;101887.03;;;6.85;79.51
75414;BME280;64758;52.122;5.404;2022-12-07T13:05:19;101888.06;;;6.35;82.26
75414;BME280;64758;52.122;5.404;2022-12-07T13:15:55;101864.09;;;5.67;88.81
75414;BME280;64758;52.122;5.404;2022-12-07T13:18:41;101854.50;;;5.66;89.31
75414;BME280;64758;52.122;5.404;2022-12-07T13:26:19;101849.94;;;5.48;90.93
75414;BME280;64758;52.122;5.404;2022-12-07T13:31:21;101842.63;;;5.31;91.47
75414;BME280;64758;52.122;5.404;2022-12-07T13:33:50;101837.09;;;5.34;92.19
75414;BME280;64758;52.122;5.404;2022-12-07T13:36:24;101834.28;;;5.46;93.05
75414;BME280;64758;52.122;5.404;2022-12-07T13:38:57;101821.56;;;5.51;93.23
75414;BME280;64758;52.122;5.404;2022-12-07T13:41:26;101830.44;;;5.50;93.24
75414;BME280;64758;52.122;5.404;2022-12-07T13:44:00;101827.09;;;5.48;93.79
75414;BME280;64758;52.122;5.404;2022-12-07T13:46:44;101823.94;;;5.54;93.97
75414;BME280;64758;52.122;5.404;2022-12-07T13:51:47;101818.06;;;5.51;94.63
75414;BME280;64758;52.122;5.404;2022-12-07T13:54:14;101811.56;;;5.55;95.19
75414;BME280;64758;52.122;5.404;2022-12-07T13:56:41;101814.81;;;5.58;95.23
75414;BME280;64758;52.122;5.404;2022-12-07T13:59:18;101806.63;;;5.61;95.23
75414;BME280;64758;52.122;5.404;2022-12-07T14:01:47;101803.56;;;5.56;94.92
75414;BME280;64758;52.122;5.404;2022-12-07T14:04:31;101811.91;;;5.61;95.42
75414;BME280;64758;52.122;5.404;2022-12-07T14:06:59;101801.38;;;5.61;95.76
75414;BME280;64758;52.122;5.404;2022-12-07T14:09:29;101805.25;;;5.67;96.05
75414;BME280;64758;52.122;5.404;2022-12-07T14:11:57;101805.97;;;5.69;95.87
75414;BME280;64758;52.122;5.404;2022-12-07T14:14:29;101798.22;;;5.67;95.90
75414;BME280;64758;52.122;5.404;2022-12-07T14:17:15;101800.00;;;5.67;96.06
75414;BME280;64758;52.122;5.404;2022-12-07T14:19:50;101789.78;;;5.73;96.56
75414;BME280;64758;52.122;5.404;2022-12-07T14:22:25;101783.28;;;5.77;96.63
75414;BME280;64758;52.122;5.404;2022-12-07T14:25:16;101785.69;;;5.80;96.36
75414;BME280;64758;52.122;5.404;2022-12-07T14:27:52;101785.41;;;5.83;97.00
75414;BME280;64758;52.122;5.404;2022-12-07T14:30:23;101778.22;;;5.85;96.80
75414;BME280;64758;52.122;5.404;2022-12-07T14:32:53;101770.16;;;5.87;97.21
75414;BME280;64758;52.122;5.404;2022-12-07T14:35:20;101781.53;;;5.87;96.85
75414;BME280;64758;52.122;5.404;2022-12-07T14:37:48;101784.31;;;5.86;97.31
75414;BME280;64758;52.122;5.404;2022-12-07T14:40:24;101784.81;;;5.80;96.44